Time;durP1;ratioP1;P1;durP2;ratioP2;P2;SDS_P1;SDS_P2;PMS_P1;PMS_P2;Temp;Humidity;BMP_temperature;BMP_pressure;BME280_temperature;BME280_humidity;BME280_pressure;Samples;Min_cycle;Max_cycle;Signal;HPM_P1;HPM_P2
2022/10/14 00:01:11;;;;;;;30.40;17.02;;;11.50;99.90;;;;;;5058283;28;20041;-70
2022/10/14 00:03:38;;;;;;;27.58;14.93;;;11.50;99.90;;;;;;5060824;28;20033;-69
2022/10/14 00:06:11;;;;;;;28.60;16.80;;;11.40;99.90;;;;;;5060007;28;20053;-70
2022/10/14 00:08:37;;;;;;;28.85;16.73;;;11.40;99.90;;;;;;5060755;28;20051;-70
2022/10/14 00:11:07;;;;;;;26.52;16.23;;;11.40;99.90;;;;;;5059076;28;20799;-69
2022/10/14 00:13:33;;;;;;;30.30;16.67;;;11.40;99.90;;;;;;5059843;28;20076;-70
2022/10/14 00:15:59;;;;;;;28.65;16.60;;;11.50;99.90;;;;;;5060023;28;20048;-70
2022/10/14 00:18:25;;;;;;;24.65;15.15;;;11.50;99.90;;;;;;5049140;28;20463;-70
2022/10/14 00:20:57;;;;;;;;;;;11.50;99.90;;;;;;5046010;28;20057;-70
2022/10/14 00:23:24;;;;;;;27.40;15.05;;;11.50;99.90;;;;;;5046579;28;19992;-69
2022/10/14 00:25:50;;;;;;;25.90;14.93;;;11.40;99.90;;;;;;5046586;28;20187;-70
2022/10/14 00:28:16;;;;;;;23.63;13.85;;;11.50;99.90;;;;;;5045498;28;20067;-70
2022/10/14 00:30:42;;;;;;;27.30;14.30;;;11.50;99.90;;;;;;5043846;28;20041;-70
2022/10/14 00:33:07;;;;;;;;;;;11.50;99.90;;;;;;5045735;28;20059;-70
2022/10/14 00:35:34;;;;;;;26.55;14.77;;;11.50;99.90;;;;;;5043823;28;20763;-70
2022/10/14 00:37:59;;;;;;;22.02;13.57;;;11.50;99.90;;;;;;5045293;28;20660;-70
2022/10/14 00:40:25;;;;;;;;;;;11.50;99.90;;;;;;5045906;28;20033;-70
2022/10/14 00:42:51;;;;;;;21.95;10.65;;;11.50;99.90;;;;;;5046205;28;20007;-69
2022/10/14 00:45:21;;;;;;;;;;;11.50;99.90;;;;;;5046039;28;20063;-70
2022/10/14 00:47:49;;;;;;;16.42;11.02;;;11.50;99.90;;;;;;5024687;28;20431;-70
2022/10/14 00:50:15;;;;;;;16.85;10.80;;;11.50;99.90;;;;;;5023812;28;20029;-70
2022/10/14 00:52:42;;;;;;;27.30;12.40;;;11.50;99.90;;;;;;5041225;28;20635;-69
2022/10/14 00:55:13;;;;;;;17.88;10.48;;;11.50;99.90;;;;;;5046116;28;20565;-70
2022/10/14 00:57:39;;;;;;;14.43;8.93;;;11.50;99.90;;;;;;5045871;28;20501;-69
2022/10/14 01:00:07;;;;;;;;;;;11.50;99.90;;;;;;5045022;28;20075;-69
2022/10/14 01:02:33;;;;;;;13.10;8.32;;;11.50;99.90;;;;;;5044989;28;19959;-69
2022/10/14 01:05:00;;;;;;;14.60;8.65;;;11.50;99.90;;;;;;5045998;28;20117;-70
2022/10/14 01:08:01;;;;;;;11.90;8.05;;;11.50;99.90;;;;;;5045178;28;20049;-69
2022/10/14 01:10:32;;;;;;;13.48;8.50;;;11.40;99.90;;;;;;5045398;28;20374;-70
2022/10/14 01:13:15;;;;;;;14.18;7.88;;;11.40;99.90;;;;;;5045406;28;20040;-69
2022/10/14 01:15:59;;;;;;;14.10;7.55;;;11.40;99.90;;;;;;5045098;28;20079;-69
2022/10/14 01:18:42;;;;;;;10.35;6.78;;;11.40;99.90;;;;;;5025824;28;20069;-70
2022/10/14 01:21:21;;;;;;;17.92;7.63;;;11.50;99.90;;;;;;5029719;28;20036;-69
2022/10/14 01:24:14;;;;;;;10.77;7.25;;;11.50;99.90;;;;;;5045513;28;20032;-69
2022/10/14 01:27:06;;;;;;;10.23;6.75;;;11.50;99.90;;;;;;5045692;28;20140;-69
2022/10/14 01:30:04;;;;;;;11.13;7.00;;;11.50;99.90;;;;;;5043344;28;20033;-69
2022/10/14 01:32:38;;;;;;;;;;;11.50;99.90;;;;;;5042297;28;20048;-70
2022/10/14 01:35:22;;;;;;;12.90;6.97;;;11.50;99.90;;;;;;5039982;28;20337;-69
2022/10/14 01:37:54;;;;;;;9.57;6.05;;;11.50;99.90;;;;;;5044338;28;20029;-69
2022/10/14 01:40:38;;;;;;;8.52;6.50;;;11.50;99.90;;;;;;5045201;28;20102;-69
2022/10/14 01:43:05;;;;;;;10.93;6.75;;;11.50;99.90;;;;;;5046527;28;20037;-70
2022/10/14 01:45:34;;;;;;;11.38;5.93;;;11.50;99.90;;;;;;5045080;28;20040;-69
2022/10/14 01:48:01;;;;;;;8.20;5.78;;;11.50;99.90;;;;;;5045170;28;20429;-69
2022/10/14 01:50:29;;;;;;;10.13;6.10;;;11.50;99.90;;;;;;5044352;28;20037;-70
2022/10/14 01:53:08;;;;;;;11.02;6.25;;;11.50;99.90;;;;;;5045511;28;20036;-70
2022/10/14 01:55:38;;;;;;;8.55;6.03;;;11.50;99.90;;;;;;5040613;28;20146;-69
2022/10/14 01:58:07;;;;;;;11.80;6.45;;;11.50;99.90;;;;;;5044728;28;20041;-70
2022/10/14 02:00:33;;;;;;;9.77;6.60;;;11.50;99.90;;;;;;5042965;28;20036;-69
2022/10/14 02:02:59;;;;;;;;;;;11.50;99.90;;;;;;5044226;28;20374;-70
2022/10/14 02:05:43;;;;;;;7.93;5.35;;;11.50;99.90;;;;;;5044842;28;19928;-70
2022/10/14 02:08:38;;;;;;;10.15;6.30;;;11.50;99.90;;;;;;5037272;28;20041;-69
2022/10/14 02:11:14;;;;;;;8.68;5.43;;;11.50;99.90;;;;;;5043788;28;20041;-70
2022/10/14 02:13:55;;;;;;;9.65;5.97;;;11.50;99.90;;;;;;5044712;28;20401;-70
2022/10/14 02:16:37;;;;;;;7.65;5.30;;;11.50;99.90;;;;;;5044296;28;20056;-70
2022/10/14 02:19:27;;;;;;;9.73;5.72;;;11.50;99.90;;;;;;5042179;28;20055;-69
2022/10/14 02:22:00;;;;;;;6.45;4.70;;;11.50;99.90;;;;;;5038433;28;20037;-70
2022/10/14 02:24:32;;;;;;;7.55;5.00;;;11.50;99.90;;;;;;5040754;28;20532;-69
2022/10/14 02:27:03;;;;;;;8.50;5.30;;;11.50;99.90;;;;;;5043658;28;20119;-70
2022/10/14 02:29:30;;;;;;;8.18;5.47;;;11.50;99.90;;;;;;5022831;28;20481;-74
2022/10/14 02:31:58;;;;;;;8.00;5.38;;;11.40;99.90;;;;;;5040014;28;20041;-70
2022/10/14 02:34:24;;;;;;;8.82;6.43;;;11.40;99.90;;;;;;5042890;28;20080;-70
2022/10/14 02:36:52;;;;;;;8.90;6.45;;;11.30;99.90;;;;;;5044345;28;20036;-70
2022/10/14 02:39:26;;;;;;;10.70;6.82;;;11.30;99.90;;;;;;5043135;28;20052;-70
2022/10/14 02:41:51;;;;;;;10.95;6.78;;;11.30;99.90;;;;;;5044254;28;20041;-70
2022/10/14 02:44:17;;;;;;;;;;;11.30;99.90;;;;;;5044474;28;20556;-70
2022/10/14 02:46:43;;;;;;;11.23;7.25;;;11.30;99.90;;;;;;5043367;28;19921;-70
2022/10/14 02:49:09;;;;;;;;;;;11.30;99.90;;;;;;5043420;28;20044;-70
2022/10/14 02:51:34;;;;;;;9.55;6.72;;;11.30;99.90;;;;;;5043777;28;19917;-70
2022/10/14 02:54:01;;;;;;;;;;;11.30;99.90;;;;;;5044569;28;20047;-70
2022/10/14 02:56:27;;;;;;;9.35;6.85;;;11.30;99.90;;;;;;5036905;28;19921;-70
2022/10/14 02:58:52;;;;;;;;;;;11.40;99.90;;;;;;5042795;28;20656;-69
2022/10/14 03:01:18;;;;;;;10.30;6.47;;;11.40;99.90;;;;;;5041574;28;19917;-70
2022/10/14 03:03:44;;;;;;;;;;;11.40;99.90;;;;;;5040421;28;20033;-70
2022/10/14 03:06:09;;;;;;;9.63;5.78;;;11.40;99.90;;;;;;5042524;28;19990;-70
2022/10/14 03:08:35;;;;;;;;;;;11.40;99.90;;;;;;5044348;28;20037;-70
2022/10/14 03:11:00;;;;;;;15.27;6.10;;;11.40;99.90;;;;;;5043300;28;19917;-70
2022/10/14 03:13:26;;;;;;;;;;;11.50;99.90;;;;;;5044440;28;20130;-70
2022/10/14 03:15:52;;;;;;;8.85;5.32;;;11.50;99.90;;;;;;5042153;28;19928;-69
2022/10/14 03:18:18;;;;;;;;;;;11.50;99.90;;;;;;5043237;28;20033;-69
2022/10/14 03:20:44;;;;;;;7.57;4.97;;;11.50;99.90;;;;;;5043310;28;19917;-69
2022/10/14 03:23:11;;;;;;;8.23;5.28;;;11.50;99.90;;;;;;5044171;28;20041;-69
2022/10/14 03:25:36;;;;;;;7.95;5.88;;;11.50;99.90;;;;;;5043793;28;20128;-70
2022/10/14 03:28:02;;;;;;;;;;;11.50;99.90;;;;;;5045116;28;20056;-70
2022/10/14 03:30:30;;;;;;;8.23;5.28;;;11.50;99.90;;;;;;5041703;28;20348;-70
2022/10/14 03:32:56;;;;;;;7.55;5.50;;;11.50;99.90;;;;;;5043579;28;20476;-70
2022/10/14 03:35:22;;;;;;;;;;;11.50;99.90;;;;;;5039401;28;20049;-70
2022/10/14 03:37:47;;;;;;;8.85;5.05;;;11.50;99.90;;;;;;5023866;28;19913;-70
2022/10/14 03:40:13;;;;;;;;;;;11.40;99.90;;;;;;5036291;28;20540;-69
2022/10/14 03:42:40;;;;;;;8.43;5.05;;;11.40;99.90;;;;;;5034698;28;19912;-70
2022/10/14 03:45:07;;;;;;;9.43;5.60;;;11.50;99.90;;;;;;5041169;28;20053;-70
2022/10/14 03:47:33;;;;;;;8.20;5.35;;;11.50;99.90;;;;;;5038746;28;20053;-70
2022/10/14 03:49:59;;;;;;;;;;;11.50;99.90;;;;;;5043220;28;20029;-69
2022/10/14 03:52:25;;;;;;;8.10;5.65;;;11.50;99.90;;;;;;5042186;28;20034;-69
2022/10/14 03:54:51;;;;;;;;;;;11.50;99.90;;;;;;5043622;28;20116;-69
2022/10/14 03:57:17;;;;;;;6.32;4.40;;;11.50;99.90;;;;;;5047456;28;19928;-70
2022/10/14 03:59:43;;;;;;;10.20;5.10;;;11.40;99.90;;;;;;5045791;28;20060;-70
2022/10/14 04:02:08;;;;;;;;;;;11.40;99.90;;;;;;5045515;28;20097;-69
2022/10/14 04:04:34;;;;;;;9.38;3.72;;;11.40;99.90;;;;;;5042854;28;19920;-69
2022/10/14 04:06:59;;;;;;;;;;;11.50;99.90;;;;;;5040873;28;20542;-69
2022/10/14 04:09:26;;;;;;;7.07;3.05;;;11.50;99.90;;;;;;5044502;28;19924;-70
2022/10/14 04:11:52;;;;;;;6.93;3.83;;;11.50;99.90;;;;;;5046026;28;20045;-70
2022/10/14 04:14:17;;;;;;;;;;;11.50;99.90;;;;;;5044328;28;20040;-69
2022/10/14 04:16:43;;;;;;;9.07;3.72;;;11.50;99.90;;;;;;5046332;28;20288;-69
2022/10/14 04:19:08;;;;;;;8.77;3.28;;;11.50;99.90;;;;;;5045903;28;20100;-70
2022/10/14 04:21:34;;;;;;;;;;;11.50;99.90;;;;;;5047261;28;20124;-69
2022/10/14 04:23:59;;;;;;;6.13;3.65;;;11.50;99.90;;;;;;5043004;28;20007;-70
2022/10/14 04:26:25;;;;;;;;;;;11.50;99.90;;;;;;5042422;28;20048;-69
2022/10/14 04:28:51;;;;;;;5.13;3.20;;;11.50;99.90;;;;;;5044934;28;20346;-69
2022/10/14 04:31:16;;;;;;;;;;;11.50;99.90;;;;;;5044963;28;20029;-70
2022/10/14 04:33:42;;;;;;;4.70;2.70;;;11.50;99.90;;;;;;5046904;28;19917;-70
2022/10/14 04:36:08;;;;;;;;;;;11.50;99.90;;;;;;5045000;28;20123;-70
2022/10/14 04:38:33;;;;;;;6.00;2.45;;;11.50;99.90;;;;;;5046632;28;19920;-69
2022/10/14 04:40:59;;;;;;;;;;;11.50;99.90;;;;;;5044882;28;20043;-70
2022/10/14 04:43:25;;;;;;;3.13;2.10;;;11.50;99.90;;;;;;5040116;28;19958;-69
2022/10/14 04:45:50;;;;;;;;;;;11.50;99.90;;;;;;5047051;28;20048;-69
2022/10/14 04:48:17;;;;;;;5.35;2.28;;;11.50;99.90;;;;;;5044015;28;19924;-67
2022/10/14 04:50:43;;;;;;;3.25;2.13;;;11.50;99.90;;;;;;5045627;28;20037;-68
2022/10/14 04:53:09;;;;;;;2.40;1.70;;;11.50;99.90;;;;;;5046304;28;20047;-70
2022/10/14 04:55:35;;;;;;;8.15;1.83;;;11.40;99.90;;;;;;5044535;28;20040;-70
2022/10/14 04:58:01;;;;;;;3.33;2.30;;;11.50;99.90;;;;;;5046290;28;20047;-70
2022/10/14 05:00:27;;;;;;;;;;;11.50;99.90;;;;;;5044974;28;20052;-70
2022/10/14 05:02:52;;;;;;;2.40;1.90;;;11.50;99.90;;;;;;5045626;28;20242;-66
2022/10/14 05:05:18;;;;;;;;;;;11.50;99.90;;;;;;5041161;28;20072;-65
2022/10/14 05:07:43;;;;;;;2.63;1.88;;;11.50;99.90;;;;;;5044824;28;20288;-66
2022/10/14 05:10:09;;;;;;;6.05;2.28;;;11.50;99.90;;;;;;5043998;28;20091;-68
2022/10/14 05:12:37;;;;;;;2.70;1.65;;;11.50;99.90;;;;;;5045547;28;20103;-68
2022/10/14 05:15:04;;;;;;;5.85;1.70;;;11.50;99.90;;;;;;5040959;28;20044;-65
2022/10/14 05:17:31;;;;;;;4.00;1.35;;;11.50;99.90;;;;;;5044286;28;20705;-65
2022/10/14 05:19:56;;;;;;;5.78;1.67;;;11.50;99.90;;;;;;5043383;28;20215;-65
2022/10/14 05:22:22;;;;;;;;;;;11.60;99.90;;;;;;5045901;28;20128;-64
2022/10/14 05:24:48;;;;;;;6.35;1.70;;;11.60;99.90;;;;;;5041966;28;20023;-65
2022/10/14 05:27:14;;;;;;;2.95;1.40;;;11.50;99.90;;;;;;5042660;28;20033;-66
2022/10/14 05:29:40;;;;;;;;;;;11.50;99.90;;;;;;5006694;28;20048;-69
2022/10/14 05:32:06;;;;;;;2.63;1.75;;;11.50;99.90;;;;;;5049336;28;19944;-68
2022/10/14 05:34:31;;;;;;;;;;;11.50;99.90;;;;;;5055799;28;20035;-68
2022/10/14 05:36:57;;;;;;;2.13;1.50;;;11.50;99.90;;;;;;5045772;28;20016;-68
2022/10/14 05:39:22;;;;;;;;;;;11.40;99.90;;;;;;5056397;28;20128;-68
2022/10/14 05:41:48;;;;;;;1.92;1.38;;;11.40;99.90;;;;;;5041683;28;22044;-69
2022/10/14 05:44:14;;;;;;;;;;;11.50;99.90;;;;;;5053283;28;20032;-68
2022/10/14 05:46:39;;;;;;;4.43;1.20;;;11.50;99.90;;;;;;5048292;28;19932;-64
2022/10/14 05:49:05;;;;;;;;;;;11.50;99.90;;;;;;5036087;28;20119;-70
2022/10/14 05:51:35;;;;;;;1.70;1.27;;;11.50;99.90;;;;;;5054544;28;19924;-67
2022/10/14 05:54:01;;;;;;;2.47;1.38;;;11.40;99.90;;;;;;5055592;28;20036;-67
2022/10/14 05:56:27;;;;;;;;;;;11.50;99.90;;;;;;5040756;28;20100;-67
2022/10/14 05:58:53;;;;;;;2.38;1.40;;;11.50;99.90;;;;;;5044408;28;19921;-68
2022/10/14 06:01:18;;;;;;;;;;;11.50;99.90;;;;;;5043805;28;20041;-70
2022/10/14 06:03:48;;;;;;;3.08;1.30;;;11.50;99.90;;;;;;5043081;28;20396;-65
2022/10/14 06:06:13;;;;;;;2.63;1.52;;;11.50;99.90;;;;;;5040293;28;20045;-69
2022/10/14 06:08:39;;;;;;;;;;;11.50;99.90;;;;;;5040310;28;20523;-68
2022/10/14 06:11:06;;;;;;;2.85;1.92;;;11.50;99.90;;;;;;5042622;28;20560;-68
2022/10/14 06:13:33;;;;;;;2.75;1.60;;;11.50;99.90;;;;;;5045614;28;20037;-70
2022/10/14 06:16:07;;;;;;;3.13;1.95;;;11.50;99.90;;;;;;5041927;28;20124;-69
2022/10/14 06:18:33;;;;;;;3.25;1.77;;;11.60;99.90;;;;;;5045744;28;20048;-69
2022/10/14 06:20:59;;;;;;;3.70;1.77;;;11.50;99.90;;;;;;5044233;28;20428;-69
2022/10/14 06:23:25;;;;;;;;;;;11.50;99.90;;;;;;5045091;28;20044;-69
2022/10/14 06:25:51;;;;;;;3.00;1.38;;;11.60;99.90;;;;;;5051752;28;19920;-69
2022/10/14 06:28:16;;;;;;;;;;;11.60;99.90;;;;;;5056018;28;20043;-68
2022/10/14 06:30:48;;;;;;;4.63;1.20;;;11.50;99.90;;;;;;5048378;28;20611;-69
2022/10/14 06:33:13;;;;;;;2.50;1.75;;;11.50;99.90;;;;;;5057759;28;20641;-69
2022/10/14 06:35:39;;;;;;;;;;;11.50;99.90;;;;;;5045464;28;20040;-69
2022/10/14 06:38:04;;;;;;;1.77;0.98;;;11.50;99.90;;;;;;5039302;28;19982;-69
2022/10/14 06:40:30;;;;;;;;;;;11.50;99.90;;;;;;5041042;28;20120;-69
2022/10/14 06:43:05;;;;;;;2.22;1.42;;;11.60;99.90;;;;;;5044959;28;19917;-69
2022/10/14 06:45:42;;;;;;;1.67;1.10;;;11.60;99.90;;;;;;5035608;28;20045;-64
2022/10/14 06:48:08;;;;;;;2.08;1.25;;;11.60;99.90;;;;;;5030644;28;20139;-71
2022/10/14 06:50:35;;;;;;;;;;;11.70;99.90;;;;;;5046155;28;20120;-70
2022/10/14 06:53:00;;;;;;;2.55;1.15;;;11.70;99.90;;;;;;5043860;28;19920;-71
2022/10/14 06:55:26;;;;;;;;;;;11.70;99.90;;;;;;5056197;28;20542;-72
2022/10/14 06:57:51;;;;;;;1.20;0.85;;;11.70;99.90;;;;;;5052598;28;19920;-70
2022/10/14 07:00:17;;;;;;;;;;;11.70;99.90;;;;;;5052600;28;20760;-71
2022/10/14 07:02:43;;;;;;;3.65;0.68;;;11.70;99.90;;;;;;5049996;28;19922;-72
2022/10/14 07:05:09;;;;;;;1.10;0.80;;;11.70;99.90;;;;;;5064623;28;20032;-69
2022/10/14 07:07:35;;;;;;;;;;;11.80;99.90;;;;;;5062896;28;20054;-69
2022/10/14 07:10:01;;;;;;;1.52;0.77;;;11.80;99.90;;;;;;5061312;28;19924;-69
2022/10/14 07:12:26;;;;;;;;;;;11.80;99.90;;;;;;5069461;28;20037;-68
2022/10/14 07:14:52;;;;;;;0.85;0.60;;;11.80;99.90;;;;;;5063796;28;19920;-70
2022/10/14 07:17:18;;;;;;;;;;;11.80;99.90;;;;;;5064028;28;20046;-71
2022/10/14 07:19:43;;;;;;;1.23;0.60;;;11.80;99.90;;;;;;5064144;28;20949;-71
2022/10/14 07:22:09;;;;;;;;;;;11.80;99.90;;;;;;5062586;28;20040;-71
2022/10/14 07:24:35;;;;;;;0.68;0.50;;;11.80;99.90;;;;;;5062861;28;20379;-72
2022/10/14 07:27:00;;;;;;;;;;;11.80;99.90;;;;;;5056729;28;20045;-72
2022/10/14 07:29:27;;;;;;;2.20;0.52;;;11.90;99.90;;;;;;5063697;28;20003;-72
2022/10/14 07:31:53;;;;;;;0.88;0.70;;;11.90;99.90;;;;;;5084825;28;20110;-70
2022/10/14 07:34:18;;;;;;;;;;;11.90;99.90;;;;;;5064057;28;20040;-71
2022/10/14 07:36:44;;;;;;;1.48;0.80;;;11.90;99.90;;;;;;5064904;28;20338;-71
2022/10/14 07:39:10;;;;;;;;;;;11.90;99.90;;;;;;5067892;28;20033;-71
2022/10/14 07:41:36;;;;;;;2.35;1.23;;;12.00;99.90;;;;;;5068111;28;20386;-69
2022/10/14 07:44:05;;;;;;;;;;;11.90;99.90;;;;;;5068427;28;20032;-70
2022/10/14 07:46:33;;;;;;;1.33;0.90;;;12.00;99.90;;;;;;5062034;28;20700;-71
2022/10/14 07:49:14;;;;;;;1.27;0.90;;;12.00;99.90;;;;;;5094603;28;20048;-68
2022/10/14 07:51:40;;;;;;;2.33;0.90;;;12.00;99.90;;;;;;5068028;28;20106;-71
2022/10/14 07:54:11;;;;;;;3.75;1.73;;;12.10;99.90;;;;;;5064853;28;20511;-69
2022/10/14 07:56:39;;;;;;;0.95;0.68;;;12.10;99.90;;;;;;5067788;28;20052;-69
2022/10/14 07:59:07;;;;;;;2.95;0.88;;;12.10;99.90;;;;;;5067153;28;20051;-69
2022/10/14 08:01:33;;;;;;;2.95;0.75;;;12.10;99.90;;;;;;5074532;28;20055;-69
2022/10/14 08:03:59;;;;;;;;;;;12.10;99.90;;;;;;5069658;28;20028;-68
2022/10/14 08:06:25;;;;;;;1.95;0.47;;;12.20;99.90;;;;;;5067656;28;20434;-69
2022/10/14 08:08:51;;;;;;;1.10;0.50;;;12.20;99.90;;;;;;5067512;28;20720;-69
2022/10/14 08:11:18;;;;;;;;;;;12.30;99.90;;;;;;5068137;28;20041;-69
2022/10/14 08:13:45;;;;;;;1.20;0.73;;;12.30;99.90;;;;;;5065499;28;20015;-69
2022/10/14 08:16:18;;;;;;;1.23;0.40;;;12.40;99.90;;;;;;5065924;28;20071;-69
2022/10/14 08:18:45;;;;;;;0.88;0.43;;;12.40;99.90;;;;;;5063476;28;20094;-69
2022/10/14 08:21:12;;;;;;;0.47;0.40;;;12.40;99.90;;;;;;5064237;28;20031;-69
2022/10/14 08:23:37;;;;;;;0.40;0.40;;;12.50;99.90;;;;;;5065504;28;20123;-69
2022/10/14 08:26:03;;;;;;;;;;;12.50;99.90;;;;;;5067657;28;20128;-69
2022/10/14 08:28:29;;;;;;;3.30;0.80;;;12.50;99.90;;;;;;5060972;28;19966;-69
2022/10/14 08:30:55;;;;;;;;;;;12.50;99.90;;;;;;5064970;28;20037;-68
2022/10/14 08:33:20;;;;;;;0.95;0.65;;;12.50;99.90;;;;;;5063019;28;20605;-69
2022/10/14 08:35:46;;;;;;;;;;;12.50;99.90;;;;;;5070219;28;20108;-69
2022/10/14 08:38:12;;;;;;;1.02;0.70;;;12.50;99.90;;;;;;5066409;28;19927;-69
2022/10/14 08:40:58;;;;;;;;;;;12.50;99.90;;;;;;5066381;28;20120;-69
2022/10/14 08:43:35;;;;;;;1.10;0.73;;;12.50;99.90;;;;;;5066323;28;19959;-69
2022/10/14 08:46:30;;;;;;;1.08;0.88;;;12.50;99.90;;;;;;5059818;28;20854;-69
2022/10/14 08:49:14;;;;;;;1.42;0.75;;;12.60;99.90;;;;;;5058288;28;20040;-69
2022/10/14 08:51:46;;;;;;;1.08;0.90;;;12.60;99.90;;;;;;5062755;28;20043;-70
2022/10/14 08:54:35;;;;;;;1.35;0.85;;;12.60;99.90;;;;;;5066622;28;20492;-69
2022/10/14 08:57:03;;;;;;;2.03;1.50;;;12.60;99.90;;;;;;5082117;28;20044;-69
2022/10/14 08:59:31;;;;;;;1.00;0.90;;;12.50;99.90;;;;;;5064235;28;20052;-70
2022/10/14 09:02:09;;;;;;;2.70;1.00;;;12.50;99.90;;;;;;5063570;28;20091;-69
2022/10/14 09:04:35;;;;;;;1.27;0.98;;;12.50;99.90;;;;;;5066837;28;20092;-69
2022/10/14 09:07:02;;;;;;;2.92;1.42;;;12.60;99.90;;;;;;5061995;28;20040;-69
2022/10/14 09:09:39;;;;;;;2.10;0.82;;;12.60;99.90;;;;;;5065332;28;20051;-68
2022/10/14 09:12:11;;;;;;;1.17;1.00;;;12.60;99.90;;;;;;5065571;28;20493;-70
2022/10/14 09:14:45;;;;;;;4.03;1.33;;;12.50;99.90;;;;;;5065305;28;20071;-70
2022/10/14 09:17:22;;;;;;;1.05;0.90;;;12.60;99.90;;;;;;5066130;28;20098;-69
2022/10/14 09:19:53;;;;;;;1.75;1.10;;;12.60;99.90;;;;;;5057873;28;20072;-70
2022/10/14 09:22:18;;;;;;;1.58;0.90;;;12.60;99.90;;;;;;5060841;28;20049;-70
2022/10/14 09:24:47;;;;;;;;;;;12.50;99.90;;;;;;5067156;28;20261;-68
2022/10/14 09:27:20;;;;;;;1.83;0.98;;;12.50;99.90;;;;;;5065770;28;19925;-69
2022/10/14 09:30:08;;;;;;;1.35;1.00;;;12.50;99.90;;;;;;5066163;28;20048;-70
2022/10/14 09:32:42;;;;;;;4.35;1.33;;;12.60;99.90;;;;;;5073871;28;20051;-69
2022/10/14 09:35:39;;;;;;;2.95;1.17;;;12.60;99.90;;;;;;5072117;28;20147;-69
2022/10/14 09:38:06;;;;;;;1.80;1.10;;;12.60;99.90;;;;;;5064876;28;20052;-69
2022/10/14 09:40:42;;;;;;;3.10;1.30;;;12.60;99.90;;;;;;5065081;28;20044;-69
2022/10/14 09:43:08;;;;;;;2.10;1.05;;;12.60;99.90;;;;;;5064378;28;20091;-70
2022/10/14 09:45:45;;;;;;;;;;;12.70;99.90;;;;;;5064730;28;20129;-69
2022/10/14 09:48:38;;;;;;;0.80;0.80;;;12.70;99.90;;;;;;5064394;28;19916;-69
2022/10/14 09:51:28;;;;;;;2.15;0.70;;;12.70;99.90;;;;;;5064290;28;20082;-69
2022/10/14 09:54:00;;;;;;;1.05;0.85;;;12.80;99.90;;;;;;5064882;28;20052;-69
2022/10/14 09:56:35;;;;;;;0.80;0.50;;;12.80;99.90;;;;;;5065143;28;20048;-69
2022/10/14 09:59:03;;;;;;;0.73;0.60;;;12.90;99.90;;;;;;5065097;28;20055;-68
2022/10/14 10:01:38;;;;;;;1.42;0.75;;;12.80;99.90;;;;;;5065825;28;20044;-69
2022/10/14 10:04:40;;;;;;;2.92;0.90;;;12.90;99.90;;;;;;5076601;28;20042;-68
2022/10/14 10:07:21;;;;;;;1.05;0.63;;;12.80;99.90;;;;;;5066503;28;20048;-70
2022/10/14 10:09:54;;;;;;;0.98;0.70;;;12.80;99.90;;;;;;5063399;28;20044;-68
2022/10/14 10:12:34;;;;;;;0.75;0.60;;;12.70;99.90;;;;;;5061550;28;20120;-67
2022/10/14 10:15:03;;;;;;;0.80;0.60;;;12.70;99.90;;;;;;5059394;28;20055;-69
2022/10/14 10:17:36;;;;;;;0.70;0.57;;;12.70;99.90;;;;;;5064947;28;20041;-70
2022/10/14 10:20:13;;;;;;;0.63;0.52;;;12.80;99.90;;;;;;5064151;28;20044;-70
2022/10/14 10:22:40;;;;;;;0.85;0.60;;;12.80;99.90;;;;;;5060715;28;20040;-71
2022/10/14 10:25:09;;;;;;;4.80;0.22;;;12.80;99.90;;;;;;5064526;28;20542;-71
2022/10/14 10:27:44;;;;;;;2.03;0.38;;;12.90;99.90;;;;;;5064605;28;20098;-70
2022/10/14 10:30:37;;;;;;;0.50;0.30;;;12.90;99.90;;;;;;5064010;28;20033;-69
2022/10/14 10:33:22;;;;;;;0.65;0.35;;;12.90;99.90;;;;;;5058512;28;20431;-71
2022/10/14 10:36:27;;;;;;;0.77;0.30;;;13.00;99.90;;;;;;5061954;28;20036;-71
2022/10/14 10:39:11;;;;;;;0.63;0.30;;;13.10;99.90;;;;;;5044239;28;20500;-70
2022/10/14 10:42:00;;;;;;;0.30;0.30;;;13.20;99.90;;;;;;5063138;28;20075;-71
2022/10/14 10:44:35;;;;;;;0.25;0.22;;;13.20;99.90;;;;;;5062245;28;20047;-71
2022/10/14 10:47:09;;;;;;;1.35;0.40;;;13.30;99.90;;;;;;5063522;28;20136;-70
2022/10/14 10:49:49;;;;;;;0.50;0.28;;;13.30;99.90;;;;;;5063816;28;20032;-71
2022/10/14 10:52:43;;;;;;;1.02;0.43;;;13.40;99.90;;;;;;5064209;28;20068;-70
2022/10/14 10:55:54;;;;;;;0.45;0.30;;;13.40;99.90;;;;;;5063556;28;20130;-71
2022/10/14 10:58:55;;;;;;;0.82;0.40;;;13.40;99.90;;;;;;5040626;28;20052;-70
2022/10/14 11:01:45;;;;;;;0.50;0.43;;;13.50;99.90;;;;;;5050220;28;20057;-72
2022/10/14 11:04:11;;;;;;;0.75;0.60;;;13.60;99.90;;;;;;5063990;28;20119;-72
2022/10/14 11:13:03;;;;;;;1.40;0.73;;;13.70;99.90;;;;;;5064230;28;20044;-70
2022/10/14 11:15:57;;;;;;;0.60;0.55;;;13.60;99.90;;;;;;5064935;28;20051;-70
2022/10/14 11:18:51;;;;;;;1.30;0.70;;;13.60;99.90;;;;;;5044022;28;20107;-70
2022/10/14 11:21:39;;;;;;;1.73;1.30;;;13.60;99.90;;;;;;5054570;28;20041;-71
2022/10/14 11:24:08;;;;;;;2.10;1.17;;;13.50;99.90;;;;;;5063441;28;20106;-71
2022/10/14 11:27:29;;;;;;;1.58;0.95;;;13.60;99.90;;;;;;5064658;28;20048;-71
2022/10/14 11:30:07;;;;;;;9.25;1.45;;;13.50;99.90;;;;;;4983950;28;20106;-70
2022/10/14 11:32:33;;;;;;;2.20;1.33;;;13.50;99.90;;;;;;5064748;28;20068;-71
2022/10/14 11:34:58;;;;;;;;;;;13.40;99.90;;;;;;5058793;28;20075;-70
2022/10/14 11:37:39;;;;;;;4.32;1.85;;;13.40;99.90;;;;;;5060721;28;19921;-70
2022/10/14 11:40:32;;;;;;;3.72;2.40;;;13.40;99.90;;;;;;5059426;28;20623;-70
2022/10/14 11:43:31;;;;;;;4.32;2.13;;;13.40;99.90;;;;;;5064338;28;20072;-70
2022/10/14 11:45:59;;;;;;;4.55;3.20;;;13.20;99.90;;;;;;5068175;28;20052;-69
2022/10/14 11:48:41;;;;;;;6.15;3.45;;;13.20;99.90;;;;;;5066731;28;20079;-71
2022/10/14 11:51:21;;;;;;;5.47;3.35;;;13.20;99.90;;;;;;5062990;28;20040;-70
2022/10/14 11:54:04;;;;;;;5.30;3.22;;;13.30;99.90;;;;;;5056724;28;20040;-72
2022/10/14 11:56:56;;;;;;;4.20;3.10;;;13.30;99.90;;;;;;5058316;28;20523;-70
2022/10/14 11:59:29;;;;;;;8.27;2.75;;;13.30;99.90;;;;;;5059495;28;20106;-70
2022/10/14 12:02:13;;;;;;;5.07;3.45;;;13.40;99.90;;;;;;5060596;28;20036;-66
2022/10/14 12:04:42;;;;;;;6.63;3.72;;;13.40;99.90;;;;;;5064017;28;20612;-71
2022/10/14 12:07:16;;;;;;;7.05;3.78;;;13.40;99.90;;;;;;5059824;28;20504;-72
2022/10/14 12:09:52;;;;;;;6.95;4.03;;;13.50;99.90;;;;;;5062369;28;20048;-72
2022/10/14 12:12:21;;;;;;;5.75;3.30;;;13.50;99.90;;;;;;5064361;28;20512;-72
2022/10/14 12:14:54;;;;;;;6.90;3.88;;;13.60;99.90;;;;;;5067355;28;20040;-73
2022/10/14 12:17:49;;;;;;;7.22;4.22;;;13.60;99.90;;;;;;5068257;28;20317;-72
2022/10/14 12:20:43;;;;;;;6.13;3.50;;;13.50;99.90;;;;;;5058487;28;20113;-71
2022/10/14 12:23:27;;;;;;;4.22;3.15;;;13.60;99.90;;;;;;5062070;28;20120;-71
2022/10/14 12:26:14;;;;;;;4.38;3.28;;;13.60;99.90;;;;;;5066994;28;20096;-71
2022/10/14 12:28:41;;;;;;;5.07;3.65;;;13.60;99.90;;;;;;5067543;28;20033;-72
2022/10/14 12:31:37;;;;;;;6.38;3.97;;;13.60;99.90;;;;;;5065751;28;20040;-71
2022/10/14 12:34:12;;;;;;;7.40;3.97;;;13.60;99.90;;;;;;5062810;28;20093;-71
2022/10/14 12:36:43;;;;;;;8.38;4.40;;;13.60;99.90;;;;;;5086083;28;20040;-71
2022/10/14 12:39:18;;;;;;;7.78;4.47;;;13.70;99.90;;;;;;5070057;28;20450;-72
2022/10/14 12:42:09;;;;;;;7.03;4.13;;;13.60;99.90;;;;;;5066859;28;20041;-72
2022/10/14 12:44:47;;;;;;;12.02;4.15;;;13.70;99.90;;;;;;5066880;28;20048;-71
2022/10/14 12:47:30;;;;;;;10.00;4.93;;;13.70;99.90;;;;;;5066086;28;20660;-72
2022/10/14 12:50:01;;;;;;;7.55;4.68;;;13.60;99.90;;;;;;5066368;28;20516;-72
2022/10/14 12:52:36;;;;;;;8.57;4.72;;;13.60;99.90;;;;;;5066796;28;20037;-72
2022/10/14 12:55:13;;;;;;;12.25;5.72;;;13.50;99.90;;;;;;5066178;28;20049;-70
2022/10/14 12:57:39;;;;;;;8.55;5.35;;;13.50;99.90;;;;;;5064711;28;20498;-71
2022/10/14 13:00:25;;;;;;;;;;;13.40;99.90;;;;;;5066342;28;20094;-73
2022/10/14 13:02:54;;;;;;;9.45;5.70;;;13.50;99.90;;;;;;5042527;28;19916;-70
2022/10/14 13:05:36;;;;;;;9.05;5.20;;;13.50;99.90;;;;;;5046378;28;20033;-72
2022/10/14 13:08:23;;;;;;;13.88;5.28;;;13.50;99.90;;;;;;5046599;28;20439;-72
2022/10/14 13:11:12;;;;;;;11.82;6.40;;;13.60;99.90;;;;;;5045364;28;20037;-70
2022/10/14 13:13:46;;;;;;;10.40;5.80;;;13.60;99.90;;;;;;5045486;28;20053;-71
2022/10/14 13:16:23;;;;;;;8.63;5.75;;;13.50;99.90;;;;;;5045846;28;20536;-70
2022/10/14 13:18:57;;;;;;;9.90;6.20;;;13.50;99.90;;;;;;5045136;28;20041;-71
2022/10/14 13:21:30;;;;;;;10.82;6.82;;;13.50;99.90;;;;;;5046150;28;20051;-71
2022/10/14 13:23:59;;;;;;;14.15;7.30;;;13.50;99.90;;;;;;5045460;28;20041;-71
2022/10/14 13:26:54;;;;;;;13.40;6.90;;;13.40;99.90;;;;;;5046424;28;20049;-71
2022/10/14 13:29:28;;;;;;;11.02;6.80;;;13.40;99.90;;;;;;5045418;28;20041;-73
2022/10/14 13:32:16;;;;;;;14.85;7.57;;;13.30;99.90;;;;;;5061127;28;20089;-70